createdAt,value
2023-02-19T00:02:04.238Z,21.23
2023-02-19T00:04:30.667Z,19.27
2023-02-19T00:06:57.011Z,24.30
2023-02-19T00:09:23.423Z,17.52
2023-02-19T00:11:49.930Z,18.10
2023-02-19T00:14:19.424Z,17.90
2023-02-19T00:16:46.200Z,13.85
2023-02-19T00:19:15.850Z,17.02
2023-02-19T00:21:42.849Z,19.02
2023-02-19T00:24:13.333Z,18.85
2023-02-19T00:26:41.533Z,18.88
2023-02-19T00:29:12.235Z,18.45
2023-02-19T00:31:38.812Z,15.02
2023-02-19T00:34:06.371Z,17.67
2023-02-19T00:36:36.334Z,13.40
2023-02-19T00:39:03.994Z,14.63
2023-02-19T00:41:30.583Z,15.20
2023-02-19T00:44:05.200Z,20.65
2023-02-19T00:46:37.108Z,13.98
2023-02-19T00:49:05.644Z,17.23
2023-02-19T00:51:34.784Z,21.70
2023-02-19T00:54:01.577Z,19.13
2023-02-19T00:56:28.069Z,16.52
2023-02-19T00:58:54.735Z,13.57
2023-02-19T01:01:21.610Z,15.90
2023-02-19T01:03:48.776Z,14.30
2023-02-19T01:06:17.910Z,14.07
2023-02-19T01:08:44.995Z,15.73
2023-02-19T01:11:12.879Z,10.38
2023-02-19T01:13:40.201Z,12.40
2023-02-19T01:16:24.727Z,18.65
2023-02-19T01:18:51.836Z,16.98
2023-02-19T01:21:21.728Z,14.70
2023-02-19T01:23:49.307Z,19.52
2023-02-19T01:26:18.918Z,14.13
2023-02-19T01:28:46.008Z,20.13
2023-02-19T01:31:15.621Z,19.67
2023-02-19T01:33:53.219Z,19.70
2023-02-19T01:36:19.763Z,13.40
2023-02-19T01:38:46.784Z,22.45
2023-02-19T01:41:15.967Z,20.65
2023-02-19T01:44:28.649Z,15.63
2023-02-19T01:46:57.605Z,18.90
2023-02-19T01:49:35.020Z,18.75
2023-02-19T01:52:32.568Z,24.75
2023-02-19T01:55:01.299Z,22.02
2023-02-19T01:57:31.931Z,22.15
2023-02-19T02:00:04.170Z,26.02
2023-02-19T02:02:30.720Z,22.40
2023-02-19T02:05:00.126Z,18.98
2023-02-19T02:07:45.772Z,16.13
2023-02-19T02:10:21.587Z,21.08
2023-02-19T02:12:49.704Z,19.52
2023-02-19T02:15:17.016Z,25.70
2023-02-19T02:18:29.081Z,20.23
2023-02-19T02:20:58.349Z,22.85
2023-02-19T02:23:55.895Z,14.98
2023-02-19T02:26:25.587Z,23.05
2023-02-19T02:29:00.973Z,16.27
2023-02-19T02:31:39.273Z,22.95
2023-02-19T02:34:17.467Z,18.05
2023-02-19T02:36:47.635Z,14.23
2023-02-19T02:39:17.376Z,17.98
2023-02-19T02:41:46.247Z,15.55
2023-02-19T02:44:12.750Z,20.52
2023-02-19T02:46:44.899Z,17.52
2023-02-19T02:49:22.041Z,18.20
2023-02-19T02:51:52.444Z,18.02
2023-02-19T02:54:42.739Z,18.95
2023-02-19T02:57:14.701Z,22.80
2023-02-19T02:59:42.896Z,17.55
2023-02-19T03:02:23.747Z,26.10
2023-02-19T03:05:38.247Z,27.15
2023-02-19T03:08:12.269Z,26.05
2023-02-19T03:10:54.393Z,22.08
2023-02-19T03:13:46.968Z,26.92
2023-02-19T03:16:41.678Z,18.83
2023-02-19T03:19:21.581Z,24.25
2023-02-19T03:22:01.702Z,25.48
2023-02-19T03:24:53.701Z,20.65
2023-02-19T03:27:21.954Z,21.92
2023-02-19T03:29:51.960Z,26.73
2023-02-19T03:32:40.756Z,28.67
2023-02-19T03:35:14.625Z,20.92
2023-02-19T03:37:58.171Z,23.27
2023-02-19T03:40:29.464Z,21.48
2023-02-19T03:43:10.773Z,24.20
2023-02-19T03:45:46.459Z,16.77
2023-02-19T03:48:34.949Z,15.07
2023-02-19T03:51:26.201Z,16.83
2023-02-19T03:54:02.986Z,21.92
2023-02-19T03:56:39.064Z,23.70
2023-02-19T03:59:21.527Z,19.05
2023-02-19T04:01:54.002Z,19.63
2023-02-19T04:04:54.779Z,24.40
2023-02-19T04:07:22.679Z,20.63
2023-02-19T04:09:51.492Z,21.13
2023-02-19T04:12:19.166Z,23.75
2023-02-19T04:14:52.527Z,27.38
2023-02-19T04:17:34.123Z,22.23
2023-02-19T04:20:03.971Z,21.13
2023-02-19T04:22:31.092Z,25.05
2023-02-19T04:24:57.849Z,28.27
2023-02-19T04:27:24.288Z,20.65
2023-02-19T04:29:50.743Z,24.85
2023-02-19T04:32:17.173Z,24.80
2023-02-19T04:34:43.691Z,18.63
2023-02-19T04:37:10.175Z,24.08
2023-02-19T04:39:36.661Z,26.08
2023-02-19T04:42:03.244Z,19.23
2023-02-19T04:44:29.715Z,21.02
2023-02-19T04:46:56.175Z,18.05
2023-02-19T04:49:22.560Z,21.52
2023-02-19T04:51:48.941Z,29.42
2023-02-19T04:54:15.370Z,20.20
2023-02-19T04:56:41.741Z,27.88
2023-02-19T04:59:08.122Z,28.95
2023-02-19T05:01:34.606Z,24.83
2023-02-19T05:04:01.121Z,23.27
2023-02-19T05:06:27.728Z,21.92
2023-02-19T05:08:54.185Z,24.15
2023-02-19T05:11:20.641Z,29.10
2023-02-19T05:13:47.100Z,29.25
2023-02-19T05:16:16.041Z,19.55
2023-02-19T05:18:44.084Z,30.27
2023-02-19T05:21:12.219Z,29.70
2023-02-19T05:23:39.175Z,25.75
2023-02-19T05:26:17.015Z,27.05
2023-02-19T05:28:44.951Z,26.83
2023-02-19T05:31:12.503Z,25.75
2023-02-19T05:33:40.090Z,36.08
2023-02-19T05:36:09.758Z,23.80
2023-02-19T05:38:36.760Z,26.58
2023-02-19T05:41:14.831Z,30.70
2023-02-19T05:43:42.809Z,27.05
2023-02-19T05:46:10.853Z,20.92
2023-02-19T05:48:37.541Z,23.48
2023-02-19T05:51:06.588Z,30.30
2023-02-19T05:53:33.835Z,26.70
2023-02-19T05:56:00.278Z,31.75
2023-02-19T05:58:27.696Z,39.88
2023-02-19T06:00:54.870Z,38.63
2023-02-19T06:03:22.057Z,22.10
2023-02-19T06:05:48.570Z,35.05
2023-02-19T06:08:15.924Z,30.35
2023-02-19T06:10:42.703Z,32.25
2023-02-19T06:13:09.800Z,24.65
2023-02-19T06:15:37.249Z,40.42
2023-02-19T06:18:04.185Z,23.98
2023-02-19T06:20:30.607Z,36.03
2023-02-19T06:22:57.032Z,40.00
2023-02-19T06:25:23.439Z,38.47
2023-02-19T06:27:49.856Z,28.38
2023-02-19T06:30:16.412Z,36.75
2023-02-19T06:32:42.787Z,46.42
2023-02-19T06:35:09.156Z,57.20
2023-02-19T06:37:35.592Z,36.10
2023-02-19T06:40:02.043Z,31.85
2023-02-19T06:42:32.618Z,34.85
2023-02-19T06:44:59.090Z,32.60
2023-02-19T06:47:25.612Z,31.35
2023-02-19T06:49:52.040Z,25.13
2023-02-19T06:52:18.462Z,31.85
2023-02-19T06:54:44.858Z,24.25
2023-02-19T06:57:11.231Z,16.02
2023-02-19T06:59:37.589Z,14.38
2023-02-19T07:02:04.120Z,14.88
2023-02-19T07:04:30.652Z,12.23
2023-02-19T07:06:57.310Z,9.93
2023-02-19T07:09:25.340Z,10.07
2023-02-19T07:11:52.330Z,9.27
2023-02-19T07:14:18.969Z,9.07
2023-02-19T07:16:47.328Z,10.43
2023-02-19T07:19:15.306Z,7.68
2023-02-19T07:21:42.495Z,8.15
2023-02-19T07:24:09.979Z,5.88
2023-02-19T07:26:36.571Z,10.02
2023-02-19T07:29:02.980Z,7.22
2023-02-19T07:31:29.641Z,6.75
2023-02-19T07:33:56.239Z,5.97
2023-02-19T07:36:24.034Z,6.20
2023-02-19T07:38:57.478Z,3.35
2023-02-19T07:41:24.909Z,5.07
2023-02-19T07:43:51.661Z,3.92
2023-02-19T07:46:18.108Z,5.57
2023-02-19T07:48:44.772Z,5.88
2023-02-19T07:51:18.828Z,6.30
2023-02-19T07:53:46.675Z,6.50
2023-02-19T07:56:13.519Z,6.57
2023-02-19T07:58:40.473Z,9.73
2023-02-19T08:01:15.488Z,8.32
2023-02-19T08:03:43.071Z,8.15
2023-02-19T08:06:11.197Z,8.80
2023-02-19T08:08:39.068Z,10.57
2023-02-19T08:11:24.984Z,10.00
2023-02-19T08:13:53.254Z,9.38
2023-02-19T08:16:30.026Z,10.10
2023-02-19T08:19:03.675Z,12.32
2023-02-19T08:21:30.156Z,15.35
2023-02-19T08:23:56.602Z,12.57
2023-02-19T08:26:22.955Z,11.38
2023-02-19T08:28:49.300Z,13.68
2023-02-19T08:31:15.988Z,13.43
2023-02-19T08:33:42.446Z,8.35
2023-02-19T08:36:09.841Z,8.57
2023-02-19T08:38:37.677Z,9.25
2023-02-19T08:41:06.133Z,7.28
2023-02-19T08:43:32.598Z,14.85
2023-02-19T08:45:59.380Z,9.98
2023-02-19T08:48:25.896Z,8.38
2023-02-19T08:51:11.932Z,10.13
2023-02-19T08:53:39.876Z,5.88
2023-02-19T08:56:11.745Z,5.28
2023-02-19T08:58:38.738Z,6.70
2023-02-19T09:01:14.638Z,9.68
2023-02-19T09:03:41.586Z,6.95
2023-02-19T09:06:11.150Z,8.48
2023-02-19T09:08:37.700Z,6.45
2023-02-19T09:11:06.950Z,7.30
2023-02-19T09:13:33.371Z,4.55
2023-02-19T09:15:59.941Z,7.82
2023-02-19T09:18:26.825Z,5.13
2023-02-19T09:20:53.342Z,5.60
2023-02-19T09:23:20.161Z,4.45
2023-02-19T09:25:46.693Z,6.95
2023-02-19T09:28:13.201Z,6.05
2023-02-19T09:30:39.781Z,2.47
2023-02-19T09:33:06.218Z,2.08
2023-02-19T09:35:32.671Z,2.42
2023-02-19T09:38:01.881Z,2.20
2023-02-19T09:40:30.329Z,3.97
2023-02-19T09:42:57.044Z,1.73
2023-02-19T09:45:26.067Z,2.45
2023-02-19T09:47:57.912Z,1.75
2023-02-19T09:50:34.200Z,2.40
2023-02-19T09:53:04.547Z,1.85
2023-02-19T09:55:36.664Z,4.30
2023-02-19T09:58:15.248Z,1.95
2023-02-19T10:00:41.838Z,2.15
2023-02-19T10:03:20.634Z,2.13
2023-02-19T10:05:47.908Z,2.70
2023-02-19T10:08:19.059Z,1.92
2023-02-19T10:10:45.638Z,2.30
2023-02-19T10:13:19.390Z,3.65
2023-02-19T10:15:51.696Z,4.63
2023-02-19T10:18:24.987Z,1.90
2023-02-19T10:20:53.206Z,1.58
2023-02-19T10:23:20.515Z,1.08
2023-02-19T10:25:54.373Z,3.83
2023-02-19T10:28:23.891Z,1.50
2023-02-19T10:30:54.045Z,1.40
2023-02-19T10:33:21.264Z,1.75
2023-02-19T10:35:58.680Z,3.05
2023-02-19T10:38:31.066Z,1.67
2023-02-19T10:41:01.777Z,1.20
2023-02-19T10:43:33.806Z,1.27
2023-02-19T10:46:04.764Z,2.42
2023-02-19T10:48:36.416Z,1.02
2023-02-19T10:51:07.192Z,1.85
2023-02-19T10:53:46.487Z,2.50
2023-02-19T10:56:33.979Z,3.20
2023-02-19T10:59:18.648Z,1.33
2023-02-19T11:02:02.415Z,3.05
2023-02-19T11:04:34.049Z,0.82
2023-02-19T11:07:18.707Z,4.47
2023-02-19T11:09:49.404Z,6.03
2023-02-19T11:12:29.651Z,2.22
2023-02-19T11:14:56.407Z,3.92
2023-02-19T11:17:28.379Z,2.50
2023-02-19T11:20:04.641Z,0.98
2023-02-19T11:22:33.864Z,1.17
2023-02-19T11:25:15.379Z,4.65
2023-02-19T11:28:08.328Z,1.77
2023-02-19T11:30:41.533Z,2.13
2023-02-19T11:33:17.206Z,1.88
2023-02-19T11:35:44.902Z,2.38
2023-02-19T11:38:13.505Z,3.05
2023-02-19T11:40:54.415Z,2.42
2023-02-19T11:43:47.347Z,3.47
2023-02-19T11:46:43.595Z,6.07
2023-02-19T11:49:48.007Z,6.20
2023-02-19T11:52:35.588Z,3.47
2023-02-19T11:55:21.935Z,2.53
2023-02-19T11:58:04.348Z,2.30
2023-02-19T12:00:31.879Z,4.03
2023-02-19T12:03:05.511Z,2.75
2023-02-19T12:05:49.699Z,3.43
2023-02-19T12:08:53.695Z,5.95
2023-02-19T12:11:34.302Z,2.72
2023-02-19T12:14:09.814Z,3.28
2023-02-19T12:16:59.625Z,5.25
2023-02-19T12:19:51.596Z,3.72
2023-02-19T12:22:32.408Z,3.65
2023-02-19T12:25:23.782Z,3.35
2023-02-19T12:27:57.966Z,4.63
2023-02-19T12:30:37.949Z,5.50
2023-02-19T12:33:28.760Z,4.60
2023-02-19T12:36:12.762Z,2.45
2023-02-19T12:38:42.052Z,3.72
2023-02-19T12:41:34.785Z,2.90
2023-02-19T12:44:11.068Z,3.55
2023-02-19T12:46:42.468Z,1.90
2023-02-19T12:49:39.276Z,1.77
2023-02-19T12:52:19.190Z,1.77
2023-02-19T12:54:50.088Z,3.22
2023-02-19T12:57:22.638Z,4.35
2023-02-19T12:59:56.118Z,2.00
2023-02-19T13:02:30.405Z,1.50
2023-02-19T13:04:59.674Z,2.05
2023-02-19T13:07:44.097Z,2.92
2023-02-19T13:10:33.847Z,2.15
2023-02-19T13:13:07.110Z,3.38
2023-02-19T13:15:42.197Z,2.60
2023-02-19T13:18:18.242Z,2.63
2023-02-19T13:20:46.582Z,1.40
2023-02-19T13:23:50.752Z,5.18
2023-02-19T13:27:01.411Z,4.50
2023-02-19T13:29:46.775Z,2.45
2023-02-19T13:32:18.838Z,3.35
2023-02-19T13:34:48.024Z,2.70
2023-02-19T13:37:16.644Z,3.17
2023-02-19T13:39:49.940Z,1.77
2023-02-19T13:42:36.366Z,1.63
2023-02-19T13:45:05.193Z,1.15
2023-02-19T13:47:49.088Z,2.67
2023-02-19T13:50:28.862Z,1.63
2023-02-19T13:52:57.164Z,1.92
2023-02-19T13:55:46.520Z,2.35
2023-02-19T13:58:35.528Z,3.13
2023-02-19T14:01:07.663Z,5.22
2023-02-19T14:03:37.115Z,1.92
2023-02-19T14:06:08.994Z,3.55
2023-02-19T14:08:56.137Z,1.92
2023-02-19T14:11:41.595Z,1.65
2023-02-19T14:14:28.638Z,2.40
2023-02-19T14:16:57.868Z,3.33
2023-02-19T14:19:42.363Z,1.83
2023-02-19T14:23:03.386Z,2.67
2023-02-19T14:25:35.549Z,3.38
2023-02-19T14:28:17.282Z,2.65
2023-02-19T14:30:46.199Z,1.80
2023-02-19T14:33:16.551Z,3.42
2023-02-19T14:35:46.143Z,1.92
2023-02-19T14:38:24.221Z,2.63
2023-02-19T14:40:53.029Z,2.15
2023-02-19T14:43:22.865Z,2.58
2023-02-19T14:46:03.956Z,3.42
2023-02-19T14:48:45.663Z,3.08
2023-02-19T14:51:29.202Z,2.55
2023-02-19T14:53:57.831Z,3.00
2023-02-19T14:56:28.352Z,3.85
2023-02-19T14:59:21.947Z,3.10
2023-02-19T15:02:17.228Z,3.17
2023-02-19T15:04:43.701Z,2.65
2023-02-19T15:07:17.269Z,1.52
2023-02-19T15:09:48.582Z,2.45
2023-02-19T15:12:28.735Z,2.92
2023-02-19T15:14:59.811Z,2.97
2023-02-19T15:17:30.042Z,0.77
2023-02-19T15:19:58.926Z,2.53
2023-02-19T15:22:28.235Z,2.83
2023-02-19T15:24:55.485Z,2.63
2023-02-19T15:27:24.624Z,3.38
2023-02-19T15:29:53.642Z,2.03
2023-02-19T15:32:23.208Z,3.95
2023-02-19T15:34:58.072Z,2.15
2023-02-19T15:37:33.607Z,2.13
2023-02-19T15:40:05.446Z,2.50
2023-02-19T15:42:34.864Z,4.07
2023-02-19T15:45:23.651Z,3.30
2023-02-19T15:48:27.338Z,2.17
2023-02-19T15:51:09.326Z,2.58
2023-02-19T15:53:47.563Z,2.30
2023-02-19T15:56:30.457Z,1.33
2023-02-19T15:58:59.433Z,1.90
2023-02-19T16:01:37.545Z,1.55
2023-02-19T16:04:06.603Z,2.53
2023-02-19T16:07:01.427Z,4.38
2023-02-19T16:09:37.069Z,3.08
2023-02-19T16:12:19.930Z,1.55
2023-02-19T16:14:46.517Z,5.07
2023-02-19T16:17:22.065Z,5.13
2023-02-19T16:19:57.649Z,1.75
2023-02-19T16:22:26.623Z,2.75
2023-02-19T16:24:58.578Z,2.53
2023-02-19T16:27:37.094Z,2.65
2023-02-19T16:30:09.865Z,1.88
2023-02-19T16:32:36.373Z,1.92
2023-02-19T16:35:02.758Z,2.15
2023-02-19T16:37:40.804Z,4.50
2023-02-19T16:40:07.416Z,1.35
2023-02-19T16:42:56.785Z,2.42
2023-02-19T16:45:25.450Z,1.48
2023-02-19T16:47:52.898Z,5.00
2023-02-19T16:50:23.386Z,5.38
2023-02-19T16:52:53.555Z,3.33
2023-02-19T16:55:20.131Z,2.85
2023-02-19T16:57:46.491Z,2.05
2023-02-19T17:00:21.573Z,3.42
2023-02-19T17:02:51.166Z,5.88
2023-02-19T17:05:19.689Z,4.20
2023-02-19T17:07:46.418Z,5.38
2023-02-19T17:10:21.046Z,3.70
2023-02-19T17:15:13.776Z,3.25
2023-02-19T17:17:40.772Z,2.67
2023-02-19T17:20:29.384Z,1.98
2023-02-19T17:22:56.322Z,2.63
2023-02-19T17:25:22.929Z,2.22
2023-02-19T17:27:49.662Z,3.28
2023-02-19T17:30:26.775Z,1.52
2023-02-19T17:32:53.439Z,2.45
2023-02-19T17:35:20.356Z,1.25
2023-02-19T17:37:46.799Z,2.88
2023-02-19T17:40:33.184Z,0.85
2023-02-19T17:43:00.483Z,1.60
2023-02-19T17:45:27.017Z,0.80
2023-02-19T17:47:53.438Z,3.78
2023-02-19T17:50:22.644Z,1.17
2023-02-19T17:52:49.147Z,1.38
2023-02-19T17:55:18.407Z,2.20
2023-02-19T17:57:45.839Z,2.85
2023-02-19T18:00:18.000Z,1.70
2023-02-19T18:02:44.732Z,1.98
2023-02-19T18:05:11.833Z,3.47
2023-02-19T18:07:38.571Z,1.42
2023-02-19T18:10:06.534Z,3.28
2023-02-19T18:12:33.038Z,3.88
2023-02-19T18:14:59.575Z,3.25
2023-02-19T18:17:26.444Z,4.93
2023-02-19T18:19:53.391Z,3.85
2023-02-19T18:22:20.384Z,2.22
2023-02-19T18:24:54.094Z,2.35
2023-02-19T18:27:20.688Z,2.03
2023-02-19T18:29:55.415Z,2.85
2023-02-19T18:32:23.672Z,2.97
2023-02-19T18:34:55.640Z,2.28
2023-02-19T18:37:23.582Z,3.00
2023-02-19T18:39:50.379Z,2.78
2023-02-19T18:42:16.897Z,3.05
2023-02-19T18:44:46.796Z,2.65
2023-02-19T18:47:13.574Z,5.15
2023-02-19T18:49:40.085Z,3.70
2023-02-19T18:52:06.758Z,7.07
2023-02-19T18:54:33.364Z,3.70
2023-02-19T18:57:03.736Z,4.10
2023-02-19T18:59:30.960Z,3.30
2023-02-19T19:01:57.738Z,3.00
2023-02-19T19:04:24.205Z,5.75
2023-02-19T19:06:50.584Z,4.00
2023-02-19T19:09:17.005Z,7.85
2023-02-19T19:11:44.381Z,3.42
2023-02-19T19:14:10.815Z,3.55
2023-02-19T19:16:37.279Z,3.05
2023-02-19T19:19:03.689Z,4.82
2023-02-19T19:21:30.611Z,3.42
2023-02-19T19:23:57.066Z,4.72
2023-02-19T19:26:23.478Z,4.53
2023-02-19T19:28:49.883Z,2.42
2023-02-19T19:31:18.747Z,2.17
2023-02-19T19:33:46.774Z,3.60
2023-02-19T19:36:14.535Z,2.15
2023-02-19T19:38:41.306Z,4.07
2023-02-19T19:41:07.755Z,2.65
2023-02-19T19:43:34.171Z,2.78
2023-02-19T19:46:00.842Z,4.90
2023-02-19T19:48:29.887Z,2.83
2023-02-19T19:50:56.996Z,2.20
2023-02-19T19:53:24.301Z,1.88
2023-02-19T19:55:50.730Z,4.68
2023-02-19T19:58:20.860Z,2.67
2023-02-19T20:00:47.325Z,2.50
2023-02-19T20:03:14.040Z,3.00
2023-02-19T20:05:40.582Z,3.42
2023-02-19T20:08:06.989Z,2.00
2023-02-19T20:10:33.457Z,6.72
2023-02-19T20:13:00.198Z,2.17
2023-02-19T20:15:26.722Z,3.15
2023-02-19T20:17:53.085Z,1.98
2023-02-19T20:20:20.026Z,2.08
2023-02-19T20:22:46.410Z,3.80
2023-02-19T20:25:12.846Z,6.10
2023-02-19T20:27:39.280Z,2.10
2023-02-19T20:30:06.867Z,3.75
2023-02-19T20:32:33.315Z,3.50
2023-02-19T20:34:59.784Z,4.57
2023-02-19T20:37:26.306Z,2.05
2023-02-19T20:39:52.678Z,6.47
2023-02-19T20:42:19.078Z,3.50
2023-02-19T20:44:45.601Z,3.53
2023-02-19T20:47:12.142Z,2.45
2023-02-19T20:49:38.567Z,4.45
2023-02-19T20:52:06.823Z,4.38
2023-02-19T20:54:34.783Z,3.58
2023-02-19T20:57:03.641Z,3.35
2023-02-19T20:59:34.961Z,3.72
2023-02-19T21:02:06.333Z,6.47
2023-02-19T21:04:33.477Z,7.60
2023-02-19T21:06:59.929Z,7.97
2023-02-19T21:09:26.294Z,10.50
2023-02-19T21:11:53.089Z,14.18
2023-02-19T21:14:19.510Z,12.27
2023-02-19T21:16:45.991Z,10.48
2023-02-19T21:19:12.501Z,10.85
2023-02-19T21:21:40.316Z,12.43
2023-02-19T21:24:07.461Z,11.35
2023-02-19T21:26:39.277Z,11.20
2023-02-19T21:29:07.066Z,14.75
2023-02-19T21:31:48.467Z,13.10
2023-02-19T21:34:18.423Z,12.23
2023-02-19T21:36:45.601Z,18.50
2023-02-19T21:39:14.719Z,16.35
2023-02-19T21:41:41.205Z,12.48
2023-02-19T21:44:07.699Z,16.05
2023-02-19T21:46:34.210Z,14.05
2023-02-19T21:49:01.378Z,15.85
2023-02-19T21:51:36.554Z,20.48
2023-02-19T21:54:03.924Z,18.30
2023-02-19T21:56:33.919Z,17.88
2023-02-19T21:59:01.534Z,22.83
2023-02-19T22:01:32.766Z,16.58
2023-02-19T22:03:59.582Z,25.40
2023-02-19T22:06:29.177Z,18.77
2023-02-19T22:08:56.301Z,19.85
2023-02-19T22:11:23.006Z,22.42
2023-02-19T22:13:49.923Z,20.63
2023-02-19T22:16:17.056Z,21.38
2023-02-19T22:18:57.792Z,21.65
2023-02-19T22:21:26.873Z,19.05
2023-02-19T22:23:54.078Z,19.35
2023-02-19T22:26:29.056Z,19.13
2023-02-19T22:28:56.018Z,20.77
2023-02-19T22:31:24.532Z,25.83
2023-02-19T22:33:51.507Z,22.27
2023-02-19T22:36:24.087Z,19.13
2023-02-19T22:38:50.742Z,22.92
2023-02-19T22:41:18.079Z,23.25
2023-02-19T22:43:45.005Z,24.80
2023-02-19T22:46:16.744Z,19.48
2023-02-19T22:48:43.456Z,14.80
2023-02-19T22:51:15.322Z,18.23
2023-02-19T22:53:50.421Z,19.98
2023-02-19T22:56:18.514Z,14.73
2023-02-19T22:58:45.230Z,19.65
2023-02-19T23:01:13.432Z,17.13
2023-02-19T23:03:50.135Z,18.67
2023-02-19T23:06:20.666Z,15.65
2023-02-19T23:08:47.078Z,16.77
2023-02-19T23:11:20.031Z,17.05
2023-02-19T23:13:46.460Z,17.88
2023-02-19T23:16:13.128Z,19.25
2023-02-19T23:18:39.773Z,16.38
2023-02-19T23:21:06.258Z,16.23
2023-02-19T23:23:32.647Z,20.17
2023-02-19T23:25:59.060Z,16.13
2023-02-19T23:28:25.512Z,14.57
2023-02-19T23:30:52.056Z,16.52
2023-02-19T23:33:18.547Z,18.13
2023-02-19T23:35:44.929Z,15.23
2023-02-19T23:38:11.743Z,12.65
2023-02-19T23:40:38.163Z,16.73
2023-02-19T23:43:04.665Z,21.15
2023-02-19T23:45:31.145Z,13.73
2023-02-19T23:47:57.532Z,12.10
2023-02-19T23:50:24.001Z,16.98
2023-02-19T23:52:50.738Z,18.40
2023-02-19T23:55:17.314Z,15.73
2023-02-19T23:57:43.700Z,16.15
